sensor_id;sensor_type;location;lat;lon;timestamp;pressure;altitude;pressure_sealevel;temperature;humidity
62462;BME280;48511;38.664;-9.202;2022-12-29T00:01:24;50156.34;;;-146.63;91.44
62462;BME280;48511;38.664;-9.202;2022-12-29T00:03:25;50142.53;;;-146.63;90.97
62462;BME280;48511;38.664;-9.202;2022-12-29T00:05:25;50126.75;;;-146.63;90.56
62462;BME280;48511;38.664;-9.202;2022-12-29T00:07:26;50132.66;;;-146.63;90.71
62462;BME280;48511;38.664;-9.202;2022-12-29T00:09:27;50120.81;;;-146.63;90.29
62462;BME280;48511;38.664;-9.202;2022-12-29T00:11:27;50154.38;;;-146.63;89.82
62462;BME280;48511;38.664;-9.202;2022-12-29T00:13:28;50140.56;;;-146.63;90.10
62462;BME280;48511;38.664;-9.202;2022-12-29T00:15:47;50130.69;;;-146.63;89.63
62462;BME280;48511;38.664;-9.202;2022-12-29T00:17:48;50130.69;;;-146.63;89.43
62462;BME280;48511;38.664;-9.202;2022-12-29T00:19:48;50142.53;;;-146.63;88.87
62462;BME280;48511;38.664;-9.202;2022-12-29T00:22:12;50118.84;;;-146.63;88.38
62462;BME280;48511;38.664;-9.202;2022-12-29T00:24:32;50168.19;;;-146.63;89.51
62462;BME280;48511;38.664;-9.202;2022-12-29T00:27:03;50174.13;;;-146.63;89.18
62462;BME280;48511;38.664;-9.202;2022-12-29T00:29:27;50132.66;;;-146.63;89.06
62462;BME280;48511;38.664;-9.202;2022-12-29T00:31:46;50166.22;;;-146.63;89.66
62462;BME280;48511;38.664;-9.202;2022-12-29T00:34:09;50134.63;;;-146.63;89.49
62462;BME280;48511;38.664;-9.202;2022-12-29T00:36:36;50150.44;;;-146.63;89.96
62462;BME280;48511;38.664;-9.202;2022-12-29T00:38:44;50166.22;;;-146.63;89.31
62462;BME280;48511;38.664;-9.202;2022-12-29T00:41:05;50150.44;;;-146.63;89.51
62462;BME280;48511;38.664;-9.202;2022-12-29T00:43:24;50150.44;;;-146.63;89.47
62462;BME280;48511;38.664;-9.202;2022-12-29T00:45:43;50136.63;;;-146.63;89.20
62462;BME280;48511;38.664;-9.202;2022-12-29T00:47:44;50162.28;;;-146.63;88.87
62462;BME280;48511;38.664;-9.202;2022-12-29T00:49:45;50158.31;;;-146.63;89.75
62462;BME280;48511;38.664;-9.202;2022-12-29T00:51:46;50120.81;;;-146.63;90.33
62462;BME280;48511;38.664;-9.202;2022-12-29T00:53:47;50114.91;;;-146.63;88.82
62462;BME280;48511;38.664;-9.202;2022-12-29T00:55:48;50122.78;;;-146.63;86.85
62462;BME280;48511;38.664;-9.202;2022-12-29T00:57:48;50164.25;;;-146.63;86.54
62462;BME280;48511;38.664;-9.202;2022-12-29T00:59:49;50130.69;;;-146.63;86.13
62462;BME280;48511;38.664;-9.202;2022-12-29T01:01:51;50134.63;;;-146.63;84.92
62462;BME280;48511;38.664;-9.202;2022-12-29T01:03:53;50126.75;;;-146.63;84.13
62462;BME280;48511;38.664;-9.202;2022-12-29T01:05:54;50128.72;;;-146.63;83.68
62462;BME280;48511;38.664;-9.202;2022-12-29T01:07:55;50134.63;;;-146.63;83.23
62462;BME280;48511;38.664;-9.202;2022-12-29T01:09:55;50136.63;;;-146.63;82.42
62462;BME280;48511;38.664;-9.202;2022-12-29T01:12:11;50158.31;;;-146.63;82.45
62462;BME280;48511;38.664;-9.202;2022-12-29T01:14:12;50170.16;;;-146.63;82.67
62462;BME280;48511;38.664;-9.202;2022-12-29T01:16:13;50162.28;;;-146.63;83.39
62462;BME280;48511;38.664;-9.202;2022-12-29T01:18:15;50138.59;;;-146.63;84.34
62462;BME280;48511;38.664;-9.202;2022-12-29T01:20:16;50170.16;;;-146.63;84.92
62462;BME280;48511;38.664;-9.202;2022-12-29T01:22:17;50166.22;;;-146.63;84.12
62462;BME280;48511;38.664;-9.202;2022-12-29T01:24:18;50185.97;;;-146.63;84.00
62462;BME280;48511;38.664;-9.202;2022-12-29T01:26:20;50142.53;;;-146.63;83.86
62462;BME280;48511;38.664;-9.202;2022-12-29T01:28:21;50174.13;;;-146.63;83.65
62462;BME280;48511;38.664;-9.202;2022-12-29T01:30:22;50162.28;;;-146.63;83.74
62462;BME280;48511;38.664;-9.202;2022-12-29T01:32:23;50164.25;;;-146.63;83.59
62462;BME280;48511;38.664;-9.202;2022-12-29T01:34:23;50122.78;;;-146.63;84.33
62462;BME280;48511;38.664;-9.202;2022-12-29T01:36:24;50107.00;;;-146.63;84.52
62462;BME280;48511;38.664;-9.202;2022-12-29T01:38:25;50136.63;;;-146.63;85.04
62462;BME280;48511;38.664;-9.202;2022-12-29T01:40:26;50134.63;;;-146.63;85.25
62462;BME280;48511;38.664;-9.202;2022-12-29T01:42:26;50138.59;;;-146.63;84.62
62462;BME280;48511;38.664;-9.202;2022-12-29T01:46:53;50154.38;;;-146.63;84.40
62462;BME280;48511;38.664;-9.202;2022-12-29T01:50:59;50150.44;;;-146.63;85.17
62462;BME280;48511;38.664;-9.202;2022-12-29T01:53:02;50142.53;;;-146.63;85.18
62462;BME280;48511;38.664;-9.202;2022-12-29T01:55:06;50158.31;;;-146.63;84.79
62462;BME280;48511;38.664;-9.202;2022-12-29T01:57:12;50170.16;;;-146.63;84.48
62462;BME280;48511;38.664;-9.202;2022-12-29T01:59:20;50154.38;;;-146.63;85.49
62462;BME280;48511;38.664;-9.202;2022-12-29T02:01:23;50170.16;;;-146.63;85.45
62462;BME280;48511;38.664;-9.202;2022-12-29T02:03:25;50118.84;;;-146.63;84.93
62462;BME280;48511;38.664;-9.202;2022-12-29T02:05:33;50146.47;;;-146.63;85.17
62462;BME280;48511;38.664;-9.202;2022-12-29T02:07:37;50182.00;;;-146.63;85.75
62462;BME280;48511;38.664;-9.202;2022-12-29T02:09:38;50144.50;;;-146.63;86.33
62462;BME280;48511;38.664;-9.202;2022-12-29T02:11:39;50154.38;;;-146.63;85.96
62462;BME280;48511;38.664;-9.202;2022-12-29T02:13:40;50124.78;;;-146.63;85.49
62462;BME280;48511;38.664;-9.202;2022-12-29T02:18:10;50122.78;;;-146.63;85.00
62462;BME280;48511;38.664;-9.202;2022-12-29T02:35:13;50128.72;;;-146.63;85.78
62462;BME280;48511;38.664;-9.202;2022-12-29T02:37:30;50136.63;;;-146.63;86.00
62462;BME280;48511;38.664;-9.202;2022-12-29T02:42:11;50156.34;;;-146.63;84.94
62462;BME280;48511;38.664;-9.202;2022-12-29T02:48:56;50142.53;;;-146.63;83.57
62462;BME280;48511;38.664;-9.202;2022-12-29T02:51:03;50154.38;;;-146.63;83.48
62462;BME280;48511;38.664;-9.202;2022-12-29T02:53:15;50138.59;;;-146.63;82.87
62462;BME280;48511;38.664;-9.202;2022-12-29T02:55:18;50174.13;;;-146.63;81.83
62462;BME280;48511;38.664;-9.202;2022-12-29T02:59:22;50174.13;;;-146.63;81.54
62462;BME280;48511;38.664;-9.202;2022-12-29T03:06:49;50140.56;;;-146.63;80.91
62462;BME280;48511;38.664;-9.202;2022-12-29T03:11:19;50140.56;;;-146.63;81.54
62462;BME280;48511;38.664;-9.202;2022-12-29T03:18:14;50126.75;;;-146.63;82.38
62462;BME280;48511;38.664;-9.202;2022-12-29T03:20:20;50150.44;;;-146.63;82.12
62462;BME280;48511;38.664;-9.202;2022-12-29T03:22:29;50170.16;;;-146.63;82.20
62462;BME280;48511;38.664;-9.202;2022-12-29T03:24:39;50126.75;;;-146.63;83.33
62462;BME280;48511;38.664;-9.202;2022-12-29T03:26:42;50144.50;;;-146.63;82.81
62462;BME280;48511;38.664;-9.202;2022-12-29T03:28:51;50138.59;;;-146.63;83.04
62462;BME280;48511;38.664;-9.202;2022-12-29T03:30:57;50174.13;;;-146.63;83.18
62462;BME280;48511;38.664;-9.202;2022-12-29T03:33:02;50134.63;;;-146.63;83.40
62462;BME280;48511;38.664;-9.202;2022-12-29T03:35:08;50112.94;;;-146.63;83.04
62462;BME280;48511;38.664;-9.202;2022-12-29T03:37:14;50126.75;;;-146.63;83.30
62462;BME280;48511;38.664;-9.202;2022-12-29T03:39:18;50182.00;;;-146.63;84.01
62462;BME280;48511;38.664;-9.202;2022-12-29T03:41:27;50158.31;;;-146.63;84.77
62462;BME280;48511;38.664;-9.202;2022-12-29T03:43:31;50146.47;;;-146.63;85.48
62462;BME280;48511;38.664;-9.202;2022-12-29T03:45:32;50130.69;;;-146.63;85.76
62462;BME280;48511;38.664;-9.202;2022-12-29T03:47:33;50142.53;;;-146.63;85.83
62462;BME280;48511;38.664;-9.202;2022-12-29T03:49:35;50154.38;;;-146.63;84.82
62462;BME280;48511;38.664;-9.202;2022-12-29T03:51:37;50178.06;;;-146.63;85.37
62462;BME280;48511;38.664;-9.202;2022-12-29T03:53:39;50166.22;;;-146.63;84.85
62462;BME280;48511;38.664;-9.202;2022-12-29T03:55:40;50142.53;;;-146.63;85.59
62462;BME280;48511;38.664;-9.202;2022-12-29T03:57:41;50114.91;;;-146.63;86.35
62462;BME280;48511;38.664;-9.202;2022-12-29T03:59:46;50146.47;;;-146.63;86.37
62462;BME280;48511;38.664;-9.202;2022-12-29T04:01:47;50170.16;;;-146.63;86.24
62462;BME280;48511;38.664;-9.202;2022-12-29T04:03:48;50114.91;;;-146.63;85.86
62462;BME280;48511;38.664;-9.202;2022-12-29T04:05:50;50136.63;;;-146.63;85.96
62462;BME280;48511;38.664;-9.202;2022-12-29T04:07:51;50158.31;;;-146.63;84.92
62462;BME280;48511;38.664;-9.202;2022-12-29T04:09:51;50126.75;;;-146.63;85.44
62462;BME280;48511;38.664;-9.202;2022-12-29T04:11:56;50154.38;;;-146.63;85.46
62462;BME280;48511;38.664;-9.202;2022-12-29T04:13:57;50126.75;;;-146.63;85.11
62462;BME280;48511;38.664;-9.202;2022-12-29T04:15:59;50166.22;;;-146.63;86.01
62462;BME280;48511;38.664;-9.202;2022-12-29T04:18:00;50132.66;;;-146.63;85.84
62462;BME280;48511;38.664;-9.202;2022-12-29T04:20:02;50158.31;;;-146.63;85.96
62462;BME280;48511;38.664;-9.202;2022-12-29T04:22:25;50158.31;;;-146.63;86.47
62462;BME280;48511;38.664;-9.202;2022-12-29T04:24:26;50152.41;;;-146.63;86.34
62462;BME280;48511;38.664;-9.202;2022-12-29T04:26:26;50130.69;;;-146.63;86.47
62462;BME280;48511;38.664;-9.202;2022-12-29T04:28:38;50162.28;;;-146.63;86.48
62462;BME280;48511;38.664;-9.202;2022-12-29T04:31:02;50126.75;;;-146.63;86.81
62462;BME280;48511;38.664;-9.202;2022-12-29T04:33:08;50154.38;;;-146.63;86.87
62462;BME280;48511;38.664;-9.202;2022-12-29T04:35:09;50156.34;;;-146.63;87.45
62462;BME280;48511;38.664;-9.202;2022-12-29T04:37:10;50073.44;;;-146.63;87.24
62462;BME280;48511;38.664;-9.202;2022-12-29T04:39:11;50138.59;;;-146.63;87.75
62462;BME280;48511;38.664;-9.202;2022-12-29T04:41:13;50126.75;;;-146.63;88.53
62462;BME280;48511;38.664;-9.202;2022-12-29T04:43:14;50162.28;;;-146.63;87.89
62462;BME280;48511;38.664;-9.202;2022-12-29T04:45:34;50130.69;;;-146.63;88.53
62462;BME280;48511;38.664;-9.202;2022-12-29T04:47:43;50118.84;;;-146.63;88.43
62462;BME280;48511;38.664;-9.202;2022-12-29T04:50:03;50130.69;;;-146.63;88.71
62462;BME280;48511;38.664;-9.202;2022-12-29T04:52:04;50140.56;;;-146.63;89.02
62462;BME280;48511;38.664;-9.202;2022-12-29T04:54:05;50154.38;;;-146.63;89.26
62462;BME280;48511;38.664;-9.202;2022-12-29T04:56:06;50110.94;;;-146.63;89.36
62462;BME280;48511;38.664;-9.202;2022-12-29T04:58:07;50160.31;;;-146.63;90.12
62462;BME280;48511;38.664;-9.202;2022-12-29T05:00:09;50140.56;;;-146.63;90.16
62462;BME280;48511;38.664;-9.202;2022-12-29T05:02:10;50114.91;;;-146.63;90.72
62462;BME280;48511;38.664;-9.202;2022-12-29T05:04:11;50116.88;;;-146.63;90.99
62462;BME280;48511;38.664;-9.202;2022-12-29T05:06:12;50130.69;;;-146.63;90.76
62462;BME280;48511;38.664;-9.202;2022-12-29T05:08:13;50146.47;;;-146.63;90.74
62462;BME280;48511;38.664;-9.202;2022-12-29T05:10:13;50152.41;;;-146.63;89.96
62462;BME280;48511;38.664;-9.202;2022-12-29T05:12:14;50144.50;;;-146.63;89.79
62462;BME280;48511;38.664;-9.202;2022-12-29T05:14:26;50158.31;;;-146.63;89.96
62462;BME280;48511;38.664;-9.202;2022-12-29T05:16:27;50130.69;;;-146.63;90.54
62462;BME280;48511;38.664;-9.202;2022-12-29T05:18:28;50162.28;;;-146.63;90.71
62462;BME280;48511;38.664;-9.202;2022-12-29T05:20:29;50146.47;;;-146.63;91.08
62462;BME280;48511;38.664;-9.202;2022-12-29T05:22:31;50148.47;;;-146.63;90.73
62462;BME280;48511;38.664;-9.202;2022-12-29T05:24:32;50168.19;;;-146.63;90.87
62462;BME280;48511;38.664;-9.202;2022-12-29T05:26:33;50130.69;;;-146.63;91.00
62462;BME280;48511;38.664;-9.202;2022-12-29T05:28:45;50170.16;;;-146.63;91.09
62462;BME280;48511;38.664;-9.202;2022-12-29T05:30:51;50158.31;;;-146.63;91.32
62462;BME280;48511;38.664;-9.202;2022-12-29T05:32:53;50124.78;;;-146.63;91.65
62462;BME280;48511;38.664;-9.202;2022-12-29T05:34:54;50162.28;;;-146.63;91.71
62462;BME280;48511;38.664;-9.202;2022-12-29T05:36:55;50152.41;;;-146.63;92.24
62462;BME280;48511;38.664;-9.202;2022-12-29T05:38:55;50146.47;;;-146.63;93.00
62462;BME280;48511;38.664;-9.202;2022-12-29T05:40:57;50130.69;;;-146.63;93.59
62462;BME280;48511;38.664;-9.202;2022-12-29T05:43:16;50166.22;;;-146.63;93.70
62462;BME280;48511;38.664;-9.202;2022-12-29T05:45:39;50146.47;;;-146.63;93.97
62462;BME280;48511;38.664;-9.202;2022-12-29T05:47:59;50162.28;;;-146.63;93.25
62462;BME280;48511;38.664;-9.202;2022-12-29T05:50:19;50154.38;;;-146.63;93.30
62462;BME280;48511;38.664;-9.202;2022-12-29T05:52:39;50174.13;;;-146.63;93.76
62462;BME280;48511;38.664;-9.202;2022-12-29T05:54:40;50138.59;;;-146.63;93.83
62462;BME280;48511;38.664;-9.202;2022-12-29T05:56:46;50166.22;;;-146.63;93.52
62462;BME280;48511;38.664;-9.202;2022-12-29T05:58:47;50185.97;;;-146.63;93.89
62462;BME280;48511;38.664;-9.202;2022-12-29T06:00:47;50162.28;;;-146.63;94.23
62462;BME280;48511;38.664;-9.202;2022-12-29T06:02:48;50146.47;;;-146.63;93.66
62462;BME280;48511;38.664;-9.202;2022-12-29T06:04:51;50162.28;;;-146.63;93.90
62462;BME280;48511;38.664;-9.202;2022-12-29T06:06:52;50144.50;;;-146.63;94.09
62462;BME280;48511;38.664;-9.202;2022-12-29T06:08:58;50148.47;;;-146.63;94.28
62462;BME280;48511;38.664;-9.202;2022-12-29T06:10:59;50166.22;;;-146.63;94.64
62462;BME280;48511;38.664;-9.202;2022-12-29T06:13:00;50110.94;;;-146.63;94.70
62462;BME280;48511;38.664;-9.202;2022-12-29T06:15:01;50158.31;;;-146.63;94.74
62462;BME280;48511;38.664;-9.202;2022-12-29T06:17:02;50136.63;;;-146.63;94.84
62462;BME280;48511;38.664;-9.202;2022-12-29T06:19:03;50182.00;;;-146.63;94.83
62462;BME280;48511;38.664;-9.202;2022-12-29T06:21:05;50174.13;;;-146.63;95.14
62462;BME280;48511;38.664;-9.202;2022-12-29T06:23:06;50142.53;;;-146.63;95.28
62462;BME280;48511;38.664;-9.202;2022-12-29T06:25:07;50138.59;;;-146.63;95.17
62462;BME280;48511;38.664;-9.202;2022-12-29T06:27:09;50146.47;;;-146.63;95.17
62462;BME280;48511;38.664;-9.202;2022-12-29T06:29:11;50156.34;;;-146.63;95.56
62462;BME280;48511;38.664;-9.202;2022-12-29T06:31:12;50154.38;;;-146.63;95.70
62462;BME280;48511;38.664;-9.202;2022-12-29T06:33:12;50164.25;;;-146.63;95.80
62462;BME280;48511;38.664;-9.202;2022-12-29T06:35:13;50152.41;;;-146.63;95.99
62462;BME280;48511;38.664;-9.202;2022-12-29T06:37:19;50189.91;;;-146.63;95.92
62462;BME280;48511;38.664;-9.202;2022-12-29T06:39:20;50146.47;;;-146.63;95.60
62462;BME280;48511;38.664;-9.202;2022-12-29T06:41:34;50195.81;;;-146.63;95.55
62462;BME280;48511;38.664;-9.202;2022-12-29T06:44:07;50138.59;;;-146.63;95.75
62462;BME280;48511;38.664;-9.202;2022-12-29T06:46:23;50170.16;;;-146.63;95.28
62462;BME280;48511;38.664;-9.202;2022-12-29T06:48:24;50156.34;;;-146.63;94.81
62462;BME280;48511;38.664;-9.202;2022-12-29T06:50:25;50134.63;;;-146.63;94.58
62462;BME280;48511;38.664;-9.202;2022-12-29T06:52:25;50140.56;;;-146.63;94.77
62462;BME280;48511;38.664;-9.202;2022-12-29T06:54:26;50150.44;;;-146.63;94.91
62462;BME280;48511;38.664;-9.202;2022-12-29T06:56:27;50168.19;;;-146.63;95.02
62462;BME280;48511;38.664;-9.202;2022-12-29T06:58:28;50170.16;;;-146.63;95.01
62462;BME280;48511;38.664;-9.202;2022-12-29T07:00:28;50164.25;;;-146.63;94.18
62462;BME280;48511;38.664;-9.202;2022-12-29T07:02:29;50174.13;;;-146.63;94.29
62462;BME280;48511;38.664;-9.202;2022-12-29T07:04:30;50158.31;;;-146.63;94.60
62462;BME280;48511;38.664;-9.202;2022-12-29T07:06:30;50166.22;;;-146.63;94.93
62462;BME280;48511;38.664;-9.202;2022-12-29T07:08:31;50166.22;;;-146.63;95.14
62462;BME280;48511;38.664;-9.202;2022-12-29T07:10:32;50110.94;;;-146.63;95.08
62462;BME280;48511;38.664;-9.202;2022-12-29T07:12:32;50142.53;;;-146.63;94.78
62462;BME280;48511;38.664;-9.202;2022-12-29T07:14:33;50182.00;;;-146.63;94.48
62462;BME280;48511;38.664;-9.202;2022-12-29T07:16:34;50148.47;;;-146.63;94.80
62462;BME280;48511;38.664;-9.202;2022-12-29T07:18:35;50152.41;;;-146.63;94.96
62462;BME280;48511;38.664;-9.202;2022-12-29T07:20:36;50144.50;;;-146.63;95.22
62462;BME280;48511;38.664;-9.202;2022-12-29T07:22:36;50162.28;;;-146.63;95.62
62462;BME280;48511;38.664;-9.202;2022-12-29T07:24:37;50152.41;;;-146.63;95.88
62462;BME280;48511;38.664;-9.202;2022-12-29T07:26:38;50138.59;;;-146.63;96.16
62462;BME280;48511;38.664;-9.202;2022-12-29T07:28:39;50154.38;;;-146.63;96.22
62462;BME280;48511;38.664;-9.202;2022-12-29T07:30:39;50146.47;;;-146.63;96.56
62462;BME280;48511;38.664;-9.202;2022-12-29T07:32:40;50176.09;;;-146.63;96.70
62462;BME280;48511;38.664;-9.202;2022-12-29T07:34:41;50142.53;;;-146.63;97.00
62462;BME280;48511;38.664;-9.202;2022-12-29T07:36:41;50144.50;;;-146.63;97.08
62462;BME280;48511;38.664;-9.202;2022-12-29T07:38:42;50158.31;;;-146.63;97.38
62462;BME280;48511;38.664;-9.202;2022-12-29T07:40:43;50146.47;;;-146.63;97.43
62462;BME280;48511;38.664;-9.202;2022-12-29T07:42:43;50160.31;;;-146.63;97.42
62462;BME280;48511;38.664;-9.202;2022-12-29T07:44:44;50187.94;;;-146.63;97.67
62462;BME280;48511;38.664;-9.202;2022-12-29T07:47:11;50118.84;;;-146.63;97.95
62462;BME280;48511;38.664;-9.202;2022-12-29T07:49:12;50170.16;;;-146.63;98.01
62462;BME280;48511;38.664;-9.202;2022-12-29T07:51:13;50120.81;;;-146.63;98.01
62462;BME280;48511;38.664;-9.202;2022-12-29T07:53:14;50136.63;;;-146.63;98.26
62462;BME280;48511;38.664;-9.202;2022-12-29T07:55:15;50174.13;;;-146.63;98.26
62462;BME280;48511;38.664;-9.202;2022-12-29T07:57:16;50166.22;;;-146.63;98.24
62462;BME280;48511;38.664;-9.202;2022-12-29T07:59:17;50138.59;;;-146.63;98.21
62462;BME280;48511;38.664;-9.202;2022-12-29T08:01:18;50170.16;;;-146.63;98.13
62462;BME280;48511;38.664;-9.202;2022-12-29T08:03:18;50146.47;;;-146.63;98.20
62462;BME280;48511;38.664;-9.202;2022-12-29T08:05:19;50160.31;;;-146.63;98.09
62462;BME280;48511;38.664;-9.202;2022-12-29T08:07:20;50142.53;;;-146.63;98.09
62462;BME280;48511;38.664;-9.202;2022-12-29T08:09:21;50146.47;;;-146.63;98.15
62462;BME280;48511;38.664;-9.202;2022-12-29T08:11:22;50193.84;;;-146.63;98.18
62462;BME280;48511;38.664;-9.202;2022-12-29T08:13:23;50130.69;;;-146.63;98.09
62462;BME280;48511;38.664;-9.202;2022-12-29T08:15:24;50170.16;;;-146.63;98.14
62462;BME280;48511;38.664;-9.202;2022-12-29T08:17:24;50130.69;;;-146.63;98.21
62462;BME280;48511;38.664;-9.202;2022-12-29T08:19:25;50146.47;;;-146.63;98.30
62462;BME280;48511;38.664;-9.202;2022-12-29T08:21:28;50160.31;;;-146.63;98.18
62462;BME280;48511;38.664;-9.202;2022-12-29T08:23:29;50166.22;;;-146.63;98.33
62462;BME280;48511;38.664;-9.202;2022-12-29T08:25:30;50160.31;;;-146.63;98.32
62462;BME280;48511;38.664;-9.202;2022-12-29T08:27:31;50172.16;;;-146.63;98.08
62462;BME280;48511;38.664;-9.202;2022-12-29T08:29:31;50189.91;;;-146.63;98.21
62462;BME280;48511;38.664;-9.202;2022-12-29T08:31:32;50162.28;;;-146.63;98.20
62462;BME280;48511;38.664;-9.202;2022-12-29T08:33:33;50158.31;;;-146.63;97.91
62462;BME280;48511;38.664;-9.202;2022-12-29T08:35:33;50146.47;;;-146.63;97.92
62462;BME280;48511;38.664;-9.202;2022-12-29T08:37:34;50174.13;;;-146.63;96.23
62462;BME280;48511;38.664;-9.202;2022-12-29T08:39:35;50160.31;;;-146.63;95.66
62462;BME280;48511;38.664;-9.202;2022-12-29T08:41:36;50154.38;;;-146.63;94.76
62462;BME280;48511;38.664;-9.202;2022-12-29T08:43:36;50156.34;;;-146.63;92.43
62462;BME280;48511;38.664;-9.202;2022-12-29T08:45:37;50154.38;;;-146.63;90.86
62462;BME280;48511;38.664;-9.202;2022-12-29T08:47:38;50132.66;;;-146.63;88.87
62462;BME280;48511;38.664;-9.202;2022-12-29T08:49:38;50154.38;;;-146.63;88.72
62462;BME280;48511;38.664;-9.202;2022-12-29T08:51:39;50124.78;;;-146.63;89.11
62462;BME280;48511;38.664;-9.202;2022-12-29T08:53:40;50156.34;;;-146.63;89.41
62462;BME280;48511;38.664;-9.202;2022-12-29T08:55:41;50154.38;;;-146.63;88.89
62462;BME280;48511;38.664;-9.202;2022-12-29T08:57:42;50146.47;;;-146.63;87.48
62462;BME280;48511;38.664;-9.202;2022-12-29T08:59:51;50130.69;;;-146.63;86.80
62462;BME280;48511;38.664;-9.202;2022-12-29T09:01:52;50144.50;;;-146.63;88.27
62462;BME280;48511;38.664;-9.202;2022-12-29T09:03:54;50164.25;;;-146.63;87.32
62462;BME280;48511;38.664;-9.202;2022-12-29T09:05:55;50160.31;;;-146.63;87.65
62462;BME280;48511;38.664;-9.202;2022-12-29T09:07:56;50158.31;;;-146.63;88.28
62462;BME280;48511;38.664;-9.202;2022-12-29T09:09:56;50160.31;;;-146.63;88.44
62462;BME280;48511;38.664;-9.202;2022-12-29T09:11:57;50164.25;;;-146.63;88.45
62462;BME280;48511;38.664;-9.202;2022-12-29T09:13:57;50126.75;;;-146.63;87.99
62462;BME280;48511;38.664;-9.202;2022-12-29T09:15:59;50138.59;;;-146.63;87.13
62462;BME280;48511;38.664;-9.202;2022-12-29T09:17:59;50146.47;;;-146.63;87.32
62462;BME280;48511;38.664;-9.202;2022-12-29T09:20:00;50166.22;;;-146.63;86.39
62462;BME280;48511;38.664;-9.202;2022-12-29T09:22:01;50168.19;;;-146.63;86.04
62462;BME280;48511;38.664;-9.202;2022-12-29T09:24:02;50164.25;;;-146.63;86.09
62462;BME280;48511;38.664;-9.202;2022-12-29T09:26:04;50162.28;;;-146.63;86.80
62462;BME280;48511;38.664;-9.202;2022-12-29T09:28:05;50164.25;;;-146.63;87.23
62462;BME280;48511;38.664;-9.202;2022-12-29T09:30:10;50140.56;;;-146.63;87.81
62462;BME280;48511;38.664;-9.202;2022-12-29T09:32:11;50130.69;;;-146.63;88.28
62462;BME280;48511;38.664;-9.202;2022-12-29T09:34:12;50110.94;;;-146.63;87.33
62462;BME280;48511;38.664;-9.202;2022-12-29T09:36:13;50142.53;;;-146.63;87.62
62462;BME280;48511;38.664;-9.202;2022-12-29T09:38:13;50154.38;;;-146.63;87.57
62462;BME280;48511;38.664;-9.202;2022-12-29T09:40:26;50118.84;;;-146.63;87.56
62462;BME280;48511;38.664;-9.202;2022-12-29T09:46:57;50136.63;;;-146.63;87.12
62462;BME280;48511;38.664;-9.202;2022-12-29T09:49:19;50134.63;;;-146.63;86.54
62462;BME280;48511;38.664;-9.202;2022-12-29T09:51:25;50154.38;;;-146.63;86.29
62462;BME280;48511;38.664;-9.202;2022-12-29T09:55:36;50154.38;;;-146.63;85.54
62462;BME280;48511;38.664;-9.202;2022-12-29T09:59:45;50122.78;;;-146.63;84.98
62462;BME280;48511;38.664;-9.202;2022-12-29T10:01:53;50138.59;;;-146.63;83.18
62462;BME280;48511;38.664;-9.202;2022-12-29T10:03:58;50134.63;;;-146.63;81.48
62462;BME280;48511;38.664;-9.202;2022-12-29T10:06:14;50103.06;;;-146.63;81.02
62462;BME280;48511;38.664;-9.202;2022-12-29T10:10:43;50103.06;;;-146.63;82.42
62462;BME280;48511;38.664;-9.202;2022-12-29T10:15:02;50174.13;;;-146.63;83.13
62462;BME280;48511;38.664;-9.202;2022-12-29T10:24:18;50154.38;;;-146.63;82.34
62462;BME280;48511;38.664;-9.202;2022-12-29T10:26:25;50160.31;;;-146.63;82.46
62462;BME280;48511;38.664;-9.202;2022-12-29T10:30:55;50134.63;;;-146.63;81.53
62462;BME280;48511;38.664;-9.202;2022-12-29T10:33:02;50142.53;;;-146.63;81.28
62462;BME280;48511;38.664;-9.202;2022-12-29T10:35:20;50138.59;;;-146.63;79.47
62462;BME280;48511;38.664;-9.202;2022-12-29T10:39:51;50162.28;;;-146.63;79.48
62462;BME280;48511;38.664;-9.202;2022-12-29T10:42:29;50124.78;;;-146.63;79.44
62462;BME280;48511;38.664;-9.202;2022-12-29T10:44:33;50130.69;;;-146.63;79.33
62462;BME280;48511;38.664;-9.202;2022-12-29T10:46:36;50101.09;;;-146.63;78.71
62462;BME280;48511;38.664;-9.202;2022-12-29T10:48:38;50195.81;;;-146.63;79.22
62462;BME280;48511;38.664;-9.202;2022-12-29T10:50:39;50128.72;;;-146.63;79.68
62462;BME280;48511;38.664;-9.202;2022-12-29T10:52:43;50110.94;;;-146.63;78.15
62462;BME280;48511;38.664;-9.202;2022-12-29T10:54:54;50132.66;;;-146.63;78.44
62462;BME280;48511;38.664;-9.202;2022-12-29T10:57:00;50138.59;;;-146.63;78.91
62462;BME280;48511;38.664;-9.202;2022-12-29T11:01:16;50134.63;;;-146.63;77.23
62462;BME280;48511;38.664;-9.202;2022-12-29T11:06:24;50146.47;;;-146.63;79.67
62462;BME280;48511;38.664;-9.202;2022-12-29T11:08:31;50142.53;;;-146.63;80.00
62462;BME280;48511;38.664;-9.202;2022-12-29T11:12:33;50142.53;;;-146.63;79.30
62462;BME280;48511;38.664;-9.202;2022-12-29T11:14:35;50138.59;;;-146.63;80.20
62462;BME280;48511;38.664;-9.202;2022-12-29T11:16:36;50134.63;;;-146.63;79.65
62462;BME280;48511;38.664;-9.202;2022-12-29T11:18:40;50136.63;;;-146.63;78.00
62462;BME280;48511;38.664;-9.202;2022-12-29T11:20:42;50150.44;;;-146.63;77.93
62462;BME280;48511;38.664;-9.202;2022-12-29T11:22:44;50144.50;;;-146.63;78.58
62462;BME280;48511;38.664;-9.202;2022-12-29T11:24:46;50103.06;;;-146.63;79.37
62462;BME280;48511;38.664;-9.202;2022-12-29T11:26:49;50162.28;;;-146.63;78.66
62462;BME280;48511;38.664;-9.202;2022-12-29T11:29:17;50130.69;;;-146.63;79.14
62462;BME280;48511;38.664;-9.202;2022-12-29T11:31:21;50118.84;;;-146.63;79.57
62462;BME280;48511;38.664;-9.202;2022-12-29T11:33:22;50128.72;;;-146.63;79.81
62462;BME280;48511;38.664;-9.202;2022-12-29T11:35:35;50118.84;;;-146.63;78.29
62462;BME280;48511;38.664;-9.202;2022-12-29T11:37:39;50126.75;;;-146.63;78.32
62462;BME280;48511;38.664;-9.202;2022-12-29T11:39:50;50182.00;;;-146.63;78.64
62462;BME280;48511;38.664;-9.202;2022-12-29T11:41:53;50130.69;;;-146.63;77.88
62462;BME280;48511;38.664;-9.202;2022-12-29T11:43:57;50114.91;;;-146.63;77.54
62462;BME280;48511;38.664;-9.202;2022-12-29T11:45:59;50120.81;;;-146.63;76.87
62462;BME280;48511;38.664;-9.202;2022-12-29T11:48:09;50138.59;;;-146.63;76.38
62462;BME280;48511;38.664;-9.202;2022-12-29T11:50:23;50134.63;;;-146.63;77.05